createdAt,value
2018-06-25T00:00:47.021Z,10.00
2018-06-25T00:03:16.402Z,9.90
2018-06-25T00:05:45.927Z,9.80
2018-06-25T00:08:15.712Z,9.80
2018-06-25T00:10:45.346Z,9.70
2018-06-25T00:13:14.690Z,9.60
2018-06-25T00:15:44.719Z,9.60
2018-06-25T00:18:15.396Z,9.60
2018-06-25T00:20:48.279Z,9.50
2018-06-25T00:23:18.671Z,9.50
2018-06-25T00:25:49.228Z,9.50
2018-06-25T00:28:22.114Z,9.50
2018-06-25T00:30:52.136Z,9.40
2018-06-25T00:33:26.246Z,9.40
2018-06-25T00:35:55.715Z,9.30
2018-06-25T00:38:26.250Z,9.30
2018-06-25T00:40:56.227Z,9.30
2018-06-25T00:43:25.479Z,9.20
2018-06-25T00:45:54.723Z,9.20
2018-06-25T00:48:24.619Z,9.20
2018-06-25T00:50:54.535Z,9.10
2018-06-25T00:53:24.286Z,9.10
2018-06-25T00:55:53.286Z,9.10
2018-06-25T00:58:22.918Z,9.10
2018-06-25T01:00:52.815Z,9.20
2018-06-25T01:03:22.684Z,9.20
2018-06-25T01:05:52.654Z,9.20
2018-06-25T01:08:23.691Z,9.30
2018-06-25T01:10:53.515Z,9.30
2018-06-25T01:13:29.203Z,9.30
2018-06-25T01:15:59.254Z,9.30
2018-06-25T01:18:32.350Z,9.30
2018-06-25T01:21:03.042Z,9.30
2018-06-25T01:23:33.055Z,9.30
2018-06-25T01:26:02.957Z,9.30
2018-06-25T01:28:32.363Z,9.30
2018-06-25T01:31:02.264Z,9.20
2018-06-25T01:33:33.195Z,9.20
2018-06-25T01:36:03.280Z,9.10
2018-06-25T01:38:32.272Z,9.10
2018-06-25T01:41:02.470Z,9.10
2018-06-25T01:43:31.682Z,9.10
2018-06-25T01:46:00.901Z,9.00
2018-06-25T01:48:30.140Z,9.10
2018-06-25T01:51:02.062Z,9.20
2018-06-25T01:53:32.117Z,9.20
2018-06-25T01:56:00.846Z,9.30
2018-06-25T01:58:30.075Z,9.50
2018-06-25T02:00:58.894Z,9.60
2018-06-25T02:03:28.348Z,9.80
2018-06-25T02:05:58.197Z,10.00
2018-06-25T02:08:28.046Z,10.00
2018-06-25T02:10:58.016Z,10.20
2018-06-25T02:13:28.103Z,10.30
2018-06-25T02:15:58.208Z,10.40
2018-06-25T02:18:28.163Z,10.50
2018-06-25T02:20:57.188Z,10.60
2018-06-25T02:23:26.191Z,10.80
2018-06-25T02:25:56.858Z,10.90
2018-06-25T02:28:25.917Z,11.20
2018-06-25T02:30:56.310Z,11.40
2018-06-25T02:33:25.727Z,11.50
2018-06-25T02:35:55.551Z,11.60
2018-06-25T02:38:26.310Z,11.70
2018-06-25T02:40:55.408Z,11.80
2018-06-25T02:43:25.043Z,11.80
2018-06-25T02:45:54.986Z,11.90
2018-06-25T02:48:24.578Z,11.90
2018-06-25T02:53:25.335Z,12.00
2018-06-25T02:55:56.065Z,12.10
2018-06-25T02:58:26.099Z,12.30
2018-06-25T03:00:57.772Z,12.30
2018-06-25T03:03:27.195Z,12.50
2018-06-25T03:06:00.628Z,12.60
2018-06-25T03:08:30.649Z,12.70
2018-06-25T03:11:01.498Z,12.80
2018-06-25T03:13:31.511Z,12.90
2018-06-25T03:16:04.483Z,13.00
2018-06-25T03:18:34.291Z,13.10
2018-06-25T03:21:04.014Z,13.30
2018-06-25T03:23:34.181Z,13.60
2018-06-25T03:26:07.871Z,13.80
2018-06-25T03:28:39.137Z,13.80
2018-06-25T03:31:14.114Z,13.80
2018-06-25T03:33:45.952Z,13.90
2018-06-25T03:36:15.914Z,14.00
2018-06-25T03:38:46.292Z,14.20
2018-06-25T03:41:16.557Z,14.20
2018-06-25T03:43:51.067Z,14.40
2018-06-25T03:46:21.008Z,14.40
2018-06-25T03:48:50.861Z,14.40
2018-06-25T03:51:28.014Z,14.50
2018-06-25T03:53:59.122Z,14.50
2018-06-25T03:56:30.125Z,14.50
2018-06-25T03:59:00.429Z,14.50
2018-06-25T04:01:33.469Z,14.60
2018-06-25T04:04:04.103Z,14.70
2018-06-25T04:06:33.966Z,14.70
2018-06-25T04:09:03.031Z,14.70
2018-06-25T04:11:32.927Z,14.80
2018-06-25T04:14:02.726Z,14.90
2018-06-25T04:16:31.903Z,15.00
2018-06-25T04:19:06.027Z,15.00
2018-06-25T04:21:37.174Z,15.20
2018-06-25T04:24:06.902Z,15.30
2018-06-25T04:26:36.981Z,15.30
2018-06-25T04:29:07.047Z,15.30
2018-06-25T04:31:38.262Z,15.30
2018-06-25T04:34:08.701Z,15.20
2018-06-25T04:36:38.046Z,15.30
2018-06-25T04:39:10.290Z,15.30
2018-06-25T04:41:39.996Z,15.50
2018-06-25T04:44:09.851Z,15.60
2018-06-25T04:46:39.260Z,15.60
2018-06-25T04:49:09.008Z,15.70
2018-06-25T04:51:39.184Z,15.80
2018-06-25T04:54:09.974Z,16.00
2018-06-25T04:56:39.743Z,16.20
2018-06-25T04:59:09.206Z,16.50
2018-06-25T05:01:38.746Z,16.70
2018-06-25T05:04:08.654Z,16.90
2018-06-25T05:06:38.026Z,16.80
2018-06-25T05:09:10.762Z,16.80
2018-06-25T05:11:41.846Z,16.60
2018-06-25T05:14:11.004Z,16.80
2018-06-25T05:16:41.492Z,17.00
2018-06-25T05:19:11.378Z,17.10
2018-06-25T05:21:41.214Z,17.10
2018-06-25T05:24:10.374Z,17.20
2018-06-25T05:26:40.923Z,17.10
2018-06-25T05:29:13.954Z,16.70
2018-06-25T05:31:47.850Z,16.50
2018-06-25T05:34:17.673Z,16.40
2018-06-25T05:36:46.808Z,16.30
2018-06-25T05:39:15.850Z,16.30
2018-06-25T05:41:46.151Z,16.20
2018-06-25T05:44:15.206Z,16.20
2018-06-25T05:46:44.707Z,16.10
2018-06-25T05:49:14.582Z,16.20
2018-06-25T05:51:43.787Z,16.30
2018-06-25T05:54:18.803Z,16.40
2018-06-25T05:56:48.493Z,16.40
2018-06-25T05:59:18.624Z,16.30
2018-06-25T06:01:48.251Z,16.30
2018-06-25T06:04:19.800Z,16.40
2018-06-25T06:06:50.062Z,16.50
2018-06-25T06:09:21.126Z,16.60
2018-06-25T06:11:53.897Z,16.60
2018-06-25T06:14:24.748Z,16.70
2018-06-25T06:16:55.263Z,16.70
2018-06-25T06:19:24.752Z,16.70
2018-06-25T06:21:54.794Z,16.80
2018-06-25T06:24:24.342Z,16.80
2018-06-25T06:26:53.438Z,16.90
2018-06-25T06:29:23.218Z,17.10
2018-06-25T06:31:52.883Z,17.20
2018-06-25T06:34:22.635Z,17.40
2018-06-25T06:36:52.574Z,17.40
2018-06-25T06:39:21.970Z,17.50
2018-06-25T06:41:51.866Z,17.50
2018-06-25T06:44:22.147Z,17.60
2018-06-25T06:46:55.134Z,17.70
2018-06-25T06:49:31.023Z,17.90
2018-06-25T06:52:01.535Z,17.90
2018-06-25T06:54:31.702Z,18.00
2018-06-25T06:57:01.204Z,18.20
2018-06-25T06:59:31.698Z,18.30
2018-06-25T07:02:02.063Z,18.20
2018-06-25T07:04:32.514Z,18.30
2018-06-25T07:07:02.015Z,18.40
2018-06-25T07:12:06.827Z,18.40
2018-06-25T07:14:36.606Z,18.40
2018-06-25T07:17:07.109Z,18.40
2018-06-25T07:19:37.064Z,18.40
2018-06-25T07:22:07.588Z,18.40
2018-06-25T07:24:36.647Z,18.50
2018-06-25T07:27:05.756Z,18.50
2018-06-25T07:29:35.181Z,18.50
2018-06-25T07:32:05.863Z,18.50
2018-06-25T07:34:35.947Z,18.60
2018-06-25T07:37:05.759Z,18.60
2018-06-25T07:39:37.162Z,18.50
2018-06-25T07:42:06.716Z,18.50
2018-06-25T07:44:36.741Z,18.50
2018-06-25T07:47:05.624Z,18.30
2018-06-25T07:49:34.754Z,18.40
2018-06-25T07:52:04.691Z,18.30
2018-06-25T07:54:33.833Z,18.30
2018-06-25T07:57:03.848Z,18.30
2018-06-25T07:59:33.666Z,18.40
2018-06-25T08:02:02.902Z,18.50
2018-06-25T08:04:31.747Z,18.40
2018-06-25T08:07:01.802Z,18.40
2018-06-25T08:09:31.079Z,18.40
2018-06-25T08:12:00.643Z,18.40
2018-06-25T08:14:33.478Z,18.40
2018-06-25T08:17:05.003Z,18.40
2018-06-25T08:19:35.538Z,18.50
2018-06-25T08:22:05.514Z,18.60
2018-06-25T08:24:34.830Z,18.60
2018-06-25T08:27:04.555Z,18.70
2018-06-25T08:29:33.872Z,18.60
2018-06-25T08:32:03.666Z,18.60
2018-06-25T08:34:34.783Z,18.50
2018-06-25T08:37:04.818Z,18.50
2018-06-25T08:39:34.486Z,18.50
2018-06-25T08:42:03.431Z,18.50
2018-06-25T08:44:32.714Z,18.60
2018-06-25T08:47:06.372Z,18.70
2018-06-25T08:49:35.921Z,18.80
2018-06-25T08:52:05.788Z,18.90
2018-06-25T08:54:35.638Z,19.00
2018-06-25T08:57:05.195Z,19.10
2018-06-25T08:59:34.514Z,19.10
2018-06-25T09:02:03.845Z,19.10
2018-06-25T09:04:32.670Z,19.00
2018-06-25T09:07:01.594Z,19.10
2018-06-25T09:09:30.886Z,19.00
2018-06-25T09:12:00.310Z,19.00
2018-06-25T09:14:30.150Z,19.00
2018-06-25T09:16:59.486Z,19.00
2018-06-25T09:19:29.322Z,19.00
2018-06-25T09:21:58.766Z,19.00
2018-06-25T09:24:28.623Z,19.00
2018-06-25T09:26:58.453Z,19.10
2018-06-25T09:29:30.146Z,19.10
2018-06-25T09:31:59.490Z,19.00
2018-06-25T09:34:34.165Z,19.00
2018-06-25T09:37:03.425Z,19.00
2018-06-25T09:39:34.648Z,19.10
2018-06-25T09:42:04.344Z,19.00
2018-06-25T09:44:33.993Z,19.00
2018-06-25T09:47:03.556Z,19.10
2018-06-25T09:49:33.526Z,19.20
2018-06-25T09:52:03.877Z,19.30
2018-06-25T09:54:35.555Z,19.40
2018-06-25T09:57:04.735Z,19.40
2018-06-25T09:59:34.682Z,19.40
2018-06-25T10:02:04.577Z,19.40
2018-06-25T10:04:34.600Z,19.40
2018-06-25T10:07:03.638Z,19.50
2018-06-25T10:09:33.859Z,19.60
2018-06-25T10:12:03.643Z,19.60
2018-06-25T10:14:33.174Z,19.60
2018-06-25T10:17:03.729Z,19.60
2018-06-25T10:19:33.696Z,19.60
2018-06-25T10:22:04.002Z,19.70
2018-06-25T10:24:33.606Z,19.80
2018-06-25T10:27:02.870Z,19.90
2018-06-25T10:29:34.262Z,19.90
2018-06-25T10:32:03.459Z,20.10
2018-06-25T10:34:35.078Z,20.10
2018-06-25T10:37:04.483Z,20.10
2018-06-25T10:39:34.454Z,20.10
2018-06-25T10:42:03.723Z,20.10
2018-06-25T10:44:32.509Z,20.20
2018-06-25T10:47:01.823Z,20.30
2018-06-25T10:49:31.495Z,20.40
2018-06-25T10:52:02.318Z,20.40
2018-06-25T10:54:31.483Z,20.40
2018-06-25T10:57:01.416Z,20.40
2018-06-25T10:59:31.792Z,20.40
2018-06-25T11:02:00.491Z,20.50
2018-06-25T11:04:29.331Z,20.50
2018-06-25T11:06:58.539Z,20.60
2018-06-25T11:09:28.063Z,20.60
2018-06-25T11:11:57.439Z,20.60
2018-06-25T11:14:26.862Z,20.70
2018-06-25T11:16:57.332Z,20.80
2018-06-25T11:19:27.267Z,20.80
2018-06-25T11:21:57.555Z,20.80
2018-06-25T11:24:27.486Z,20.90
2018-06-25T11:26:57.428Z,20.80
2018-06-25T11:29:27.698Z,20.80
2018-06-25T11:31:57.386Z,20.90
2018-06-25T11:34:27.477Z,21.20
2018-06-25T11:36:56.907Z,21.30
2018-06-25T11:39:26.282Z,21.30
2018-06-25T11:41:56.424Z,21.20
2018-06-25T11:44:26.229Z,21.20
2018-06-25T11:46:56.443Z,21.30
2018-06-25T11:49:25.658Z,21.50
2018-06-25T11:51:55.531Z,21.70
2018-06-25T11:54:24.726Z,21.60
2018-06-25T11:56:53.845Z,21.50
2018-06-25T11:59:22.578Z,21.60
2018-06-25T12:01:52.273Z,21.60
2018-06-25T12:04:23.094Z,21.90
2018-06-25T12:06:52.394Z,22.10
2018-06-25T12:09:21.358Z,22.40
2018-06-25T12:11:51.307Z,22.40
2018-06-25T12:14:20.163Z,22.40
2018-06-25T12:16:49.326Z,22.60
2018-06-25T12:19:18.157Z,22.60
2018-06-25T12:21:47.470Z,22.60
2018-06-25T12:24:19.184Z,22.70
2018-06-25T12:26:49.310Z,22.70
2018-06-25T12:29:18.801Z,22.50
2018-06-25T12:31:48.286Z,22.40
2018-06-25T12:34:19.570Z,22.30
2018-06-25T12:36:48.443Z,22.20
2018-06-25T12:39:19.130Z,22.10
2018-06-25T12:41:48.548Z,22.10
2018-06-25T12:44:19.610Z,22.00
2018-06-25T12:46:49.139Z,22.10
2018-06-25T12:49:18.707Z,22.20
2018-06-25T12:51:48.177Z,22.20
2018-06-25T12:54:17.815Z,22.20
2018-06-25T12:56:49.392Z,22.30
2018-06-25T12:59:20.732Z,22.50
2018-06-25T13:01:50.458Z,22.50
2018-06-25T13:04:21.247Z,22.30
2018-06-25T13:06:50.665Z,22.30
2018-06-25T13:09:21.135Z,22.30
2018-06-25T13:11:51.451Z,22.40
2018-06-25T13:14:22.898Z,22.40
2018-06-25T13:16:53.003Z,22.20
2018-06-25T13:19:23.195Z,22.20
2018-06-25T13:21:52.186Z,22.40
2018-06-25T13:24:22.886Z,22.40
2018-06-25T13:26:52.375Z,22.50
2018-06-25T13:29:21.822Z,22.50
2018-06-25T13:31:53.059Z,22.60
2018-06-25T13:34:25.320Z,22.60
2018-06-25T13:36:55.318Z,22.60
2018-06-25T13:39:24.583Z,22.60
2018-06-25T13:41:53.782Z,22.50
2018-06-25T13:44:22.383Z,22.50
2018-06-25T13:46:53.146Z,22.60
2018-06-25T13:49:23.523Z,22.50
2018-06-25T13:51:53.176Z,22.40
2018-06-25T13:54:22.199Z,22.20
2018-06-25T13:56:51.753Z,22.30
2018-06-25T13:59:21.299Z,22.20
2018-06-25T14:01:51.939Z,22.20
2018-06-25T14:04:21.015Z,22.10
2018-06-25T14:06:50.916Z,22.00
2018-06-25T14:09:21.383Z,22.10
2018-06-25T14:11:51.278Z,22.10
2018-06-25T14:14:20.439Z,22.20
2018-06-25T14:16:50.686Z,22.30
2018-06-25T14:19:20.943Z,22.40
2018-06-25T14:21:53.035Z,22.40
2018-06-25T14:24:28.108Z,22.40
2018-06-25T14:27:04.011Z,22.30
2018-06-25T14:29:36.755Z,22.30
2018-06-25T14:32:13.458Z,22.50
2018-06-25T14:34:49.866Z,22.50
2018-06-25T14:37:19.547Z,22.40
2018-06-25T14:39:49.542Z,22.50
2018-06-25T14:42:19.337Z,22.40
2018-06-25T14:44:52.036Z,22.50
2018-06-25T14:47:22.536Z,22.30
2018-06-25T14:49:54.083Z,22.10
2018-06-25T14:52:25.221Z,22.00
2018-06-25T14:54:55.962Z,22.00
2018-06-25T14:57:25.170Z,22.00
2018-06-25T14:59:54.673Z,22.00
2018-06-25T15:02:24.097Z,22.10
2018-06-25T15:04:55.147Z,22.10
2018-06-25T15:07:26.294Z,22.10
2018-06-25T15:09:57.787Z,22.10
2018-06-25T15:12:27.493Z,21.90
2018-06-25T15:14:58.396Z,21.90
2018-06-25T15:17:27.647Z,22.00
2018-06-25T15:19:58.787Z,22.00
2018-06-25T15:22:29.890Z,22.10
2018-06-25T15:25:00.848Z,22.10
2018-06-25T15:27:31.549Z,22.20
2018-06-25T15:30:01.154Z,22.20
2018-06-25T15:32:33.001Z,22.20
2018-06-25T15:35:03.090Z,22.10
2018-06-25T15:37:33.082Z,22.10
2018-06-25T15:40:02.207Z,22.10
2018-06-25T15:42:32.234Z,22.00
2018-06-25T15:45:03.806Z,22.10
2018-06-25T15:47:34.446Z,22.00
2018-06-25T15:50:04.318Z,22.00
2018-06-25T15:52:34.110Z,22.00
2018-06-25T15:55:05.894Z,21.90
2018-06-25T15:57:36.191Z,21.80
2018-06-25T16:00:05.918Z,21.90
2018-06-25T16:02:38.359Z,21.90
2018-06-25T16:05:07.990Z,21.80
2018-06-25T16:07:38.252Z,21.90
2018-06-25T16:10:09.191Z,21.90
2018-06-25T16:12:39.284Z,21.90
2018-06-25T16:15:08.931Z,21.80
2018-06-25T16:17:39.934Z,21.80
2018-06-25T16:20:09.342Z,21.60
2018-06-25T16:22:39.026Z,21.60
2018-06-25T16:25:10.262Z,21.60
2018-06-25T16:27:39.523Z,21.60
2018-06-25T16:30:09.666Z,21.50
2018-06-25T16:32:41.926Z,21.40
2018-06-25T16:35:11.894Z,21.30
2018-06-25T16:37:40.863Z,21.20
2018-06-25T16:40:11.253Z,21.10
2018-06-25T16:42:41.807Z,21.10
2018-06-25T16:45:12.371Z,21.10
2018-06-25T16:47:43.263Z,21.10
2018-06-25T16:50:12.967Z,21.10
2018-06-25T16:52:43.121Z,21.10
2018-06-25T16:55:12.878Z,21.00
2018-06-25T16:57:45.254Z,21.00
2018-06-25T17:00:15.158Z,21.00
2018-06-25T17:02:45.204Z,21.00
2018-06-25T17:05:14.826Z,21.10
2018-06-25T17:07:46.744Z,21.10
2018-06-25T17:10:17.178Z,21.10
2018-06-25T17:12:46.526Z,21.20
2018-06-25T17:15:21.531Z,21.20
2018-06-25T17:17:52.719Z,21.10
2018-06-25T17:20:22.930Z,21.10
2018-06-25T17:22:54.135Z,21.10
2018-06-25T17:25:24.834Z,21.10
2018-06-25T17:27:55.087Z,21.00
2018-06-25T17:30:25.118Z,21.00
2018-06-25T17:32:54.970Z,20.90
2018-06-25T17:35:31.622Z,20.90
2018-06-25T17:38:02.586Z,20.90
2018-06-25T17:40:33.883Z,20.90
2018-06-25T17:43:04.115Z,20.90
2018-06-25T17:45:34.251Z,20.80
2018-06-25T17:48:04.133Z,20.80
2018-06-25T17:50:34.730Z,20.70
2018-06-25T17:53:05.269Z,20.70
2018-06-25T17:55:35.686Z,20.70
2018-06-25T17:58:05.755Z,20.60
2018-06-25T18:00:35.195Z,20.60
2018-06-25T18:03:05.198Z,20.60
2018-06-25T18:05:35.615Z,20.60
2018-06-25T18:08:06.074Z,20.50
2018-06-25T18:10:37.134Z,20.50
2018-06-25T18:13:07.007Z,20.50
2018-06-25T18:15:37.998Z,20.50
2018-06-25T18:18:08.238Z,20.50
2018-06-25T18:20:37.173Z,20.60
2018-06-25T18:23:07.740Z,20.60
2018-06-25T18:25:38.351Z,20.60
2018-06-25T18:28:08.604Z,20.50
2018-06-25T18:30:39.718Z,20.50
2018-06-25T18:33:15.835Z,20.50
2018-06-25T18:35:46.694Z,20.50
2018-06-25T18:38:17.667Z,20.60
2018-06-25T18:40:48.104Z,20.80
2018-06-25T18:43:18.650Z,21.00
2018-06-25T18:45:51.411Z,21.00
2018-06-25T18:48:21.638Z,20.90
2018-06-25T18:50:51.785Z,20.70
2018-06-25T18:53:21.846Z,20.50
2018-06-25T18:55:56.867Z,20.40
2018-06-25T18:58:25.771Z,20.20
2018-06-25T19:00:55.895Z,20.10
2018-06-25T19:03:25.038Z,20.00
2018-06-25T19:05:55.598Z,19.90
2018-06-25T19:08:25.790Z,19.80
2018-06-25T19:10:57.719Z,19.80
2018-06-25T19:13:30.851Z,19.70
2018-06-25T19:16:00.222Z,19.70
2018-06-25T19:18:31.831Z,19.60
2018-06-25T19:21:03.210Z,19.60
2018-06-25T19:23:33.866Z,19.50
2018-06-25T19:26:04.088Z,19.50
2018-06-25T19:28:33.751Z,19.40
2018-06-25T19:31:03.830Z,19.30
2018-06-25T19:33:34.015Z,19.20
2018-06-25T19:36:05.534Z,19.10
2018-06-25T19:38:36.661Z,18.90
2018-06-25T19:41:06.746Z,18.90
2018-06-25T19:43:37.644Z,18.70
2018-06-25T19:46:08.747Z,18.60
2018-06-25T19:48:39.125Z,18.50
2018-06-25T19:51:09.028Z,18.40
2018-06-25T19:53:38.300Z,18.40
2018-06-25T19:56:08.563Z,18.20
2018-06-25T19:58:37.795Z,18.20
2018-06-25T20:01:09.508Z,18.10
2018-06-25T20:03:39.542Z,18.00
2018-06-25T20:06:10.166Z,17.80
2018-06-25T20:08:39.783Z,17.70
2018-06-25T20:11:09.555Z,17.60
2018-06-25T20:13:39.560Z,17.40
2018-06-25T20:16:10.778Z,17.30
2018-06-25T20:18:40.643Z,17.20
2018-06-25T20:21:10.510Z,17.10
2018-06-25T20:23:39.950Z,17.00
2018-06-25T20:26:10.840Z,17.00
2018-06-25T20:28:39.727Z,17.00
2018-06-25T20:31:10.578Z,16.80
2018-06-25T20:33:40.239Z,16.80
2018-06-25T20:36:12.655Z,16.70
2018-06-25T20:38:43.010Z,16.60
2018-06-25T20:41:13.728Z,16.50
2018-06-25T20:43:43.716Z,16.50
2018-06-25T20:46:13.706Z,16.30
2018-06-25T20:48:43.370Z,16.20
2018-06-25T20:51:12.599Z,16.10
2018-06-25T20:53:42.626Z,16.00
2018-06-25T20:56:12.631Z,15.80
2018-06-25T20:58:41.972Z,15.70
2018-06-25T21:01:12.547Z,15.60
2018-06-25T21:03:41.678Z,15.50
2018-06-25T21:06:11.819Z,15.40
2018-06-25T21:08:41.951Z,15.40
2018-06-25T21:11:11.639Z,15.40
2018-06-25T21:13:41.658Z,15.40
2018-06-25T21:16:11.672Z,15.30
2018-06-25T21:18:42.127Z,15.30
2018-06-25T21:21:11.558Z,15.30
2018-06-25T21:23:40.547Z,15.20
2018-06-25T21:26:09.895Z,15.10
2018-06-25T21:28:39.700Z,15.10
2018-06-25T21:31:10.683Z,15.10
2018-06-25T21:33:39.706Z,15.10
2018-06-25T21:36:09.261Z,15.00
2018-06-25T21:38:38.646Z,14.90
2018-06-25T21:41:08.226Z,14.90
2018-06-25T21:43:38.176Z,14.90
2018-06-25T21:46:12.102Z,14.80
2018-06-25T21:48:42.439Z,14.80
2018-06-25T21:51:17.794Z,14.70
2018-06-25T21:53:48.238Z,14.60
2018-06-25T21:56:18.912Z,14.50
2018-06-25T21:58:48.542Z,14.50
2018-06-25T22:01:18.175Z,14.40
2018-06-25T22:03:49.035Z,14.30
2018-06-25T22:06:18.939Z,14.30
2018-06-25T22:08:49.471Z,14.20
2018-06-25T22:11:20.439Z,14.20
2018-06-25T22:13:50.611Z,14.10
2018-06-25T22:16:20.803Z,14.10
2018-06-25T22:18:50.726Z,14.00
2018-06-25T22:21:20.503Z,14.00
2018-06-25T22:23:50.595Z,14.00
2018-06-25T22:26:21.107Z,14.10
2018-06-25T22:28:51.194Z,14.10
2018-06-25T22:31:21.389Z,14.20
2018-06-25T22:33:51.683Z,14.30
2018-06-25T22:36:22.254Z,14.30
2018-06-25T22:38:52.118Z,14.30
2018-06-25T22:41:21.826Z,14.30
2018-06-25T22:43:52.375Z,14.40
2018-06-25T22:46:22.387Z,14.30
2018-06-25T22:48:52.613Z,14.30
2018-06-25T22:51:24.007Z,14.30
2018-06-25T22:53:53.435Z,14.30
2018-06-25T22:56:23.067Z,14.30
2018-06-25T22:58:52.635Z,14.30
2018-06-25T23:01:25.836Z,14.40
2018-06-25T23:03:55.794Z,14.40
2018-06-25T23:06:26.359Z,14.50
2018-06-25T23:08:56.990Z,14.50
2018-06-25T23:11:27.458Z,14.60
2018-06-25T23:13:58.099Z,14.60
2018-06-25T23:16:27.845Z,14.60
2018-06-25T23:18:57.689Z,14.60
2018-06-25T23:21:27.630Z,14.60
2018-06-25T23:23:57.335Z,14.70
2018-06-25T23:26:27.429Z,14.70
2018-06-25T23:28:57.432Z,14.70
2018-06-25T23:31:27.310Z,14.80
2018-06-25T23:33:56.914Z,14.80
2018-06-25T23:36:27.534Z,14.80
2018-06-25T23:38:57.623Z,14.90
2018-06-25T23:41:27.426Z,14.90
2018-06-25T23:43:57.482Z,14.90
2018-06-25T23:46:26.722Z,14.90
2018-06-25T23:49:13.119Z,14.90
2018-06-25T23:51:51.427Z,14.90
2018-06-25T23:54:20.708Z,15.00
2018-06-25T23:56:54.631Z,15.00
2018-06-25T23:59:24.710Z,15.00
